Time;durP1;ratioP1;P1;durP2;ratioP2;P2;SDS_P1;SDS_P2;PMS_P1;PMS_P2;Temp;Humidity;BMP_temperature;BMP_pressure;BME280_temperature;BME280_humidity;BME280_pressure;Samples;Min_cycle;Max_cycle;Signal;HPM_P1;HPM_P2
2023/12/01 00:01:46;;;;;;;35.65;18.15;;;;;;;0.58;100.00;100437.75;5032711;28;20240;-75
2023/12/01 00:04:11;;;;;;;38.70;19.20;;;;;;;0.57;100.00;100438.66;5033598;28;20225;-75
2023/12/01 00:06:37;;;;;;;33.95;18.50;;;;;;;0.51;100.00;100446.38;5032958;28;20071;-75
2023/12/01 00:09:03;;;;;;;41.53;20.95;;;;;;;0.47;100.00;100442.97;5014811;28;20036;-75
2023/12/01 00:11:28;;;;;;;40.25;18.92;;;;;;;0.46;100.00;100443.84;5033140;28;20041;-75
2023/12/01 00:13:53;;;;;;;42.22;21.27;;;;;;;0.46;100.00;100451.59;5032970;28;20279;-75
2023/12/01 00:16:19;;;;;;;49.67;20.33;;;;;;;0.53;100.00;100455.00;5033041;28;20071;-75
2023/12/01 00:18:44;;;;;;;44.85;20.95;;;;;;;0.50;100.00;100453.28;5031947;28;20040;-75
2023/12/01 00:21:10;;;;;;;42.78;20.63;;;;;;;0.44;100.00;100463.63;5037159;28;20125;-75
2023/12/01 00:23:35;;;;;;;47.38;22.80;;;;;;;0.41;100.00;100461.06;5032645;28;20061;-75
2023/12/01 00:26:03;;;;;;;50.88;22.58;;;;;;;0.42;100.00;100464.47;5033440;28;20041;-75
2023/12/01 00:28:29;;;;;;;53.47;24.07;;;;;;;0.41;100.00;100457.63;5033177;28;20037;-75
2023/12/01 00:30:54;;;;;;;48.28;23.27;;;;;;;0.46;100.00;100464.47;5015583;28;20460;-75
2023/12/01 00:33:20;;;;;;;51.78;23.42;;;;;;;0.42;100.00;100456.75;5033639;28;20041;-75
2023/12/01 00:35:45;;;;;;;48.03;23.88;;;;;;;0.41;100.00;100468.78;5015809;28;20075;-75
2023/12/01 00:38:11;;;;;;;52.53;24.45;;;;;;;0.42;100.00;100477.38;5032919;28;20071;-75
2023/12/01 00:40:36;;;;;;;53.63;24.73;;;;;;;0.43;100.00;100479.09;5032766;28;20331;-75
2023/12/01 00:43:01;;;;;;;55.40;24.58;;;;;;;0.39;100.00;100483.41;5033885;28;20068;-75
2023/12/01 00:45:27;;;;;;;53.72;23.63;;;;;;;0.46;100.00;100477.34;5037515;28;20048;-75
2023/12/01 00:47:52;;;;;;;53.22;25.15;;;;;;;0.46;100.00;100474.78;5036971;28;20221;-75
2023/12/01 00:50:18;;;;;;;56.63;25.60;;;;;;;0.50;100.00;100476.47;5033839;28;20311;-75
2023/12/01 00:52:43;;;;;;;51.85;24.38;;;;;;;0.49;100.00;100482.50;5036458;28;20025;-75
2023/12/01 00:55:09;;;;;;;55.20;26.25;;;;;;;0.57;100.00;100490.19;5036949;28;20340;-75
2023/12/01 00:57:34;;;;;;;56.15;26.30;;;;;;;0.48;100.00;100488.50;5036962;28;20044;-75
2023/12/01 01:00:00;;;;;;;56.10;26.45;;;;;;;0.48;100.00;100490.22;5036770;28;20358;-75
2023/12/01 01:02:25;;;;;;;58.83;27.33;;;;;;;0.51;100.00;100493.66;5037118;28;20029;-75
2023/12/01 01:04:50;;;;;;;54.33;26.38;;;;;;;0.59;100.00;100491.03;5036917;28;20040;-75
2023/12/01 01:07:16;;;;;;;58.40;26.20;;;;;;;0.60;100.00;100497.91;5036930;28;20040;-75
2023/12/01 01:09:41;;;;;;;50.50;24.35;;;;;;;0.61;100.00;100493.59;5036105;28;20068;-75
2023/12/01 01:12:07;;;;;;;58.30;25.77;;;;;;;0.64;100.00;100498.72;5036925;28;20029;-75
2023/12/01 01:14:32;;;;;;;56.28;25.52;;;;;;;0.59;100.00;100501.34;5036499;28;20043;-75
2023/12/01 01:16:58;;;;;;;59.08;26.67;;;;;;;0.61;100.00;100509.91;5037064;28;20041;-75
2023/12/01 01:19:23;;;;;;;54.55;25.15;;;;;;;0.63;100.00;100509.91;5036672;28;20037;-75
2023/12/01 01:21:49;;;;;;;49.67;23.58;;;;;;;0.54;100.00;100510.81;5035863;28;20053;-74
2023/12/01 01:24:14;;;;;;;55.55;24.20;;;;;;;0.45;100.00;100523.72;5036072;28;20041;-74
2023/12/01 01:26:40;;;;;;;43.80;20.55;;;;;;;0.48;100.00;100523.72;5036189;28;20037;-74
2023/12/01 01:29:05;;;;;;;43.50;21.40;;;;;;;0.45;100.00;100519.44;5036394;28;20092;-74
2023/12/01 01:31:31;;;;;;;46.92;20.15;;;;;;;0.50;100.00;100517.69;5036157;28;20029;-74
2023/12/01 01:33:57;;;;;;;44.25;21.08;;;;;;;0.46;100.00;100522.88;5036407;28;20083;-75
2023/12/01 01:36:22;;;;;;;49.13;21.80;;;;;;;0.36;100.00;100528.06;5021321;28;20036;-75
2023/12/01 01:38:47;;;;;;;50.63;22.70;;;;;;;0.35;100.00;100536.66;5035715;28;20044;-75
2023/12/01 01:41:13;;;;;;;44.28;21.02;;;;;;;0.26;100.00;100535.84;5035696;28;20126;-75
2023/12/01 01:43:38;;;;;;;40.65;20.05;;;;;;;0.21;100.00;100540.13;5035503;28;20152;-75
2023/12/01 01:46:09;;;;;;;48.00;20.02;;;;;;;0.27;100.00;100537.53;5035711;28;20365;-74
2023/12/01 01:48:35;;;;;;;46.95;20.92;;;;;;;0.18;100.00;100546.13;5036081;28;20369;-74
2023/12/01 01:51:03;;;;;;;44.10;20.25;;;;;;;0.23;100.00;100547.00;5035953;28;20381;-75
2023/12/01 01:53:29;;;;;;;35.15;17.63;;;;;;;0.14;100.00;100550.44;5034929;28;20125;-75
2023/12/01 01:55:57;;;;;;;40.35;18.27;;;;;;;0.08;100.00;100545.31;5035709;28;20049;-75
2023/12/01 01:58:24;;;;;;;42.63;19.65;;;;;;;0.15;100.00;100556.47;5036018;28;20459;-75
2023/12/01 02:00:50;;;;;;;38.90;18.33;;;;;;;0.14;100.00;100557.31;5035261;28;20096;-75
2023/12/01 02:03:18;;;;;;;36.75;18.08;;;;;;;0.11;100.00;100558.19;5035665;28;20353;-75
2023/12/01 02:05:47;;;;;;;37.45;17.00;;;;;;;0.03;100.00;100551.34;5035438;28;20056;-75
2023/12/01 02:08:27;;;;;;;40.13;16.75;;;;;;;0.00;100.00;100557.38;5035315;28;20037;-75
2023/12/01 02:10:54;;;;;;;33.13;15.85;;;;;;;-0.10;100.00;100560.81;5035593;28;20072;-75
2023/12/01 02:13:20;;;;;;;36.05;16.83;;;;;;;-0.13;100.00;100561.66;5036143;28;20209;-75
2023/12/01 02:15:46;;;;;;;36.40;16.90;;;;;;;-0.25;100.00;100559.97;5035453;28;20025;-75
2023/12/01 02:18:21;;;;;;;33.10;15.43;;;;;;;-0.22;100.00;100559.09;5035544;28;20482;-75
2023/12/01 02:20:47;;;;;;;33.53;15.80;;;;;;;-0.25;100.00;100556.53;5039796;28;20045;-75
2023/12/01 02:23:12;;;;;;;29.23;15.90;;;;;;;-0.24;100.00;100558.22;5035537;28;20029;-75
2023/12/01 02:25:38;;;;;;;30.38;15.73;;;;;;;-0.29;100.00;100560.81;5035254;28;20355;-75
2023/12/01 02:28:03;;;;;;;31.88;16.63;;;;;;;-0.32;100.00;100565.97;5035506;28;20126;-75
2023/12/01 02:30:28;;;;;;;33.53;17.05;;;;;;;-0.16;100.00;100566.81;5035066;28;20040;-75
2023/12/01 02:32:54;;;;;;;32.88;16.10;;;;;;;-0.15;100.00;100567.66;5035037;28;20519;-75
2023/12/01 02:35:20;;;;;;;27.60;14.57;;;;;;;-0.28;100.00;100564.25;5035529;28;20237;-75
2023/12/01 02:37:45;;;;;;;28.13;14.63;;;;;;;-0.25;100.00;100570.25;5034824;28;20041;-75
2023/12/01 02:40:15;;;;;;;27.13;14.65;;;;;;;-0.27;100.00;100569.41;5035308;28;20037;-75
2023/12/01 02:42:50;;;;;;;28.42;14.35;;;;;;;-0.25;100.00;100572.81;5035007;28;20029;-74
2023/12/01 02:45:17;;;;;;;32.80;15.25;;;;;;;-0.36;100.00;100564.25;5034807;28;20246;-75
2023/12/01 02:47:47;;;;;;;33.40;14.93;;;;;;;-0.43;100.00;100557.41;5034711;28;20065;-75
2023/12/01 02:50:13;;;;;;;32.20;14.73;;;;;;;-0.43;100.00;100562.53;5034897;28;20352;-75
2023/12/01 02:52:39;;;;;;;30.65;14.43;;;;;;;-0.42;100.00;100565.13;5034670;28;20041;-75
2023/12/01 02:55:05;;;;;;;31.52;14.50;;;;;;;-0.43;100.00;100567.69;5034555;28;20106;-75
2023/12/01 02:57:30;;;;;;;26.90;13.70;;;;;;;-0.45;100.00;100570.25;5034704;28;20037;-75
2023/12/01 02:59:56;;;;;;;36.78;15.32;;;;;;;-0.43;100.00;100571.13;5034459;28;20248;-75
2023/12/01 03:02:22;;;;;;;34.67;16.20;;;;;;;-0.41;100.00;100571.13;5017587;28;20053;-75
2023/12/01 03:04:47;;;;;;;33.13;15.80;;;;;;;-0.30;100.00;100560.81;5034304;28;20232;-75
2023/12/01 03:07:13;;;;;;;29.85;16.10;;;;;;;-0.32;100.00;100558.25;5033839;28;20057;-75
2023/12/01 03:09:38;;;;;;;36.42;17.33;;;;;;;-0.26;100.00;100560.81;5034112;28;20045;-75
2023/12/01 03:12:04;;;;;;;32.45;16.05;;;;;;;-0.30;100.00;100560.81;5034499;28;20357;-75
2023/12/01 03:14:30;;;;;;;35.88;17.20;;;;;;;-0.41;100.00;100563.41;5034106;28;20056;-75
2023/12/01 03:16:56;;;;;;;35.00;16.80;;;;;;;-0.41;100.00;100551.38;5016728;28;20360;-75
2023/12/01 03:19:22;;;;;;;33.13;15.55;;;;;;;-0.41;100.00;100551.38;5034208;28;20064;-75
2023/12/01 03:21:48;;;;;;;33.75;16.20;;;;;;;-0.37;100.00;100559.09;5033979;28;20088;-75
2023/12/01 03:24:14;;;;;;;35.55;16.63;;;;;;;-0.34;100.00;100564.25;5033957;28;20037;-75
2023/12/01 03:26:39;;;;;;;32.72;15.77;;;;;;;-0.33;100.00;100571.97;5034275;28;20037;-75
2023/12/01 03:29:04;;;;;;;37.63;16.50;;;;;;;-0.32;100.00;100571.13;5033829;28;20240;-74
2023/12/01 03:31:30;;;;;;;31.52;15.35;;;;;;;-0.30;100.00;100569.38;5034497;28;20045;-74
2023/12/01 03:33:55;;;;;;;28.10;14.82;;;;;;;-0.34;100.00;100570.25;5033825;28;20033;-74
2023/12/01 03:36:21;;;;;;;29.88;15.02;;;;;;;-0.37;100.00;100571.97;5034643;28;20033;-74
2023/12/01 03:38:47;;;;;;;31.15;14.77;;;;;;;-0.31;100.00;100580.56;5033407;28;20035;-74
2023/12/01 03:41:12;;;;;;;28.60;14.70;;;;;;;-0.31;100.00;100582.25;5033957;28;20080;-74
2023/12/01 03:43:38;;;;;;;28.10;13.60;;;;;;;-0.33;100.00;100581.41;5016112;28;20029;-74
2023/12/01 03:46:04;;;;;;;27.58;13.63;;;;;;;-0.36;100.00;100582.28;5034396;28;20375;-74
2023/12/01 03:48:30;;;;;;;26.88;12.95;;;;;;;-0.28;100.00;100584.84;5032894;28;20033;-74
2023/12/01 03:50:56;;;;;;;22.75;12.32;;;;;;;-0.24;100.00;100586.53;5033906;28;20044;-74
2023/12/01 03:53:21;;;;;;;21.92;11.80;;;;;;;-0.21;100.00;100587.41;5033859;28;20033;-74
2023/12/01 03:55:46;;;;;;;23.55;12.75;;;;;;;-0.23;100.00;100583.97;5033768;28;20041;-74
2023/12/01 03:58:12;;;;;;;24.23;11.57;;;;;;;-0.26;100.00;100594.25;5033562;28;20045;-74
2023/12/01 04:00:37;;;;;;;21.77;10.93;;;;;;;-0.23;100.00;100596.84;5033033;28;20041;-74
2023/12/01 04:03:02;;;;;;;27.63;12.73;;;;;;;-0.14;100.00;100605.44;5033564;28;20390;-74
2023/12/01 04:05:28;;;;;;;25.10;12.55;;;;;;;-0.21;100.00;100599.41;5033041;28;20068;-74
2023/12/01 04:07:54;;;;;;;27.55;12.25;;;;;;;-0.27;100.00;100597.72;5033901;28;20079;-74
2023/12/01 04:10:19;;;;;;;27.67;13.40;;;;;;;-0.25;100.00;100602.88;5033353;28;20056;-74
2023/12/01 04:12:45;;;;;;;25.30;12.40;;;;;;;-0.34;100.00;100597.72;5033510;28;20427;-74
2023/12/01 04:15:12;;;;;;;34.65;13.73;;;;;;;-0.31;100.00;100598.56;5033213;28;20039;-74
2023/12/01 04:17:42;;;;;;;36.78;14.07;;;;;;;-0.41;100.00;100609.72;5034387;28;20285;-74
2023/12/01 04:20:20;;;;;;;34.83;14.82;;;;;;;-0.42;100.00;100607.97;5036695;28;20041;-74
2023/12/01 04:22:51;;;;;;;33.05;14.88;;;;;;;-0.42;100.00;100614.00;5036938;28;20323;-74
2023/12/01 04:25:16;;;;;;;31.80;14.98;;;;;;;-0.36;100.00;100618.28;5036424;28;20406;-74
2023/12/01 04:27:44;;;;;;;30.38;14.90;;;;;;;-0.36;100.00;100620.00;5036131;28;20120;-74
2023/12/01 04:30:14;;;;;;;31.15;14.73;;;;;;;-0.37;100.00;100628.59;5036590;28;20037;-74
2023/12/01 04:32:48;;;;;;;36.40;14.52;;;;;;;-0.38;100.00;100630.31;5036643;28;20340;-74
2023/12/01 04:35:13;;;;;;;32.45;13.98;;;;;;;-0.33;100.00;100633.72;5036267;28;20041;-74
2023/12/01 04:37:42;;;;;;;27.73;13.07;;;;;;;-0.33;100.00;100628.56;5036716;28;20044;-74
2023/12/01 04:40:17;;;;;;;;;;;;;;;-0.35;100.00;100632.88;5035999;28;20398;-74
2023/12/01 04:42:46;;;;;;;25.33;10.95;;;;;;;-0.40;100.00;100632.88;5036542;28;19921;-74
2023/12/01 04:45:13;;;;;;;28.33;13.05;;;;;;;-0.37;100.00;100638.88;5018264;28;20379;-74
2023/12/01 04:47:43;;;;;;;24.42;12.00;;;;;;;-0.35;100.00;100642.31;5036169;28;20080;-74
2023/12/01 04:50:12;;;;;;;24.25;12.05;;;;;;;-0.29;100.00;100648.31;5036089;28;20296;-74
2023/12/01 04:53:07;;;;;;;25.30;10.73;;;;;;;-0.28;100.00;100656.91;5036363;28;20021;-74
2023/12/01 04:55:33;;;;;;;26.40;12.10;;;;;;;-0.28;100.00;100657.75;5022305;28;20045;-74
2023/12/01 04:57:58;;;;;;;28.67;12.25;;;;;;;-0.23;100.00;100656.03;5036177;28;20047;-74
2023/12/01 05:00:25;;;;;;;23.60;12.77;;;;;;;-0.20;100.00;100658.63;5036024;28;20497;-74
2023/12/01 05:03:01;;;;;;;31.17;13.52;;;;;;;-0.25;100.00;100657.75;5036334;28;20388;-74
2023/12/01 05:05:29;;;;;;;29.60;12.13;;;;;;;-0.22;100.00;100659.47;5035320;28;20041;-74
2023/12/01 05:07:59;;;;;;;30.38;12.27;;;;;;;-0.26;100.00;100658.59;5036592;28;20420;-74
2023/12/01 05:10:27;;;;;;;27.08;12.02;;;;;;;-0.18;100.00;100662.91;5035648;28;20051;-74
2023/12/01 05:12:57;;;;;;;31.38;12.48;;;;;;;-0.17;100.00;100669.78;5036362;28;20060;-74
2023/12/01 05:15:28;;;;;;;32.53;13.75;;;;;;;-0.24;100.00;100666.34;5036922;28;20030;-74
2023/12/01 05:18:00;;;;;;;28.25;13.50;;;;;;;-0.18;100.00;100668.03;5036498;28;20052;-74
2023/12/01 05:20:27;;;;;;;33.72;13.48;;;;;;;-0.15;100.00;100673.22;5037748;28;20107;-74
2023/12/01 05:22:58;;;;;;;30.02;13.38;;;;;;;-0.18;100.00;100671.50;5036539;28;20041;-74
2023/12/01 05:25:27;;;;;;;28.60;13.02;;;;;;;-0.23;100.00;100679.22;5036323;28;20062;-74
2023/12/01 05:27:56;;;;;;;32.67;13.65;;;;;;;-0.13;100.00;100686.94;5036650;28;20048;-74
2023/12/01 05:30:24;;;;;;;32.33;13.75;;;;;;;-0.11;100.00;100672.34;5036298;28;20045;-74
2023/12/01 05:32:51;;;;;;;29.42;13.82;;;;;;;-0.04;100.00;100674.94;5036374;28;20087;-74
2023/12/01 05:35:18;;;;;;;27.23;13.02;;;;;;;-0.15;100.00;100679.22;5036159;28;20041;-74
2023/12/01 05:37:49;;;;;;;31.17;13.73;;;;;;;-0.12;100.00;100668.91;5036303;28;20041;-74
2023/12/01 05:40:20;;;;;;;29.13;12.35;;;;;;;-0.13;100.00;100679.22;5035726;28;20344;-74
2023/12/01 05:42:47;;;;;;;28.20;13.38;;;;;;;-0.12;100.00;100684.38;5036057;28;20044;-74
2023/12/01 05:45:14;;;;;;;32.20;13.10;;;;;;;-0.09;100.00;100686.06;5035992;28;20358;-74
2023/12/01 05:47:44;;;;;;;31.70;14.43;;;;;;;-0.04;100.00;100689.50;5035903;28;20200;-74
2023/12/01 05:50:17;;;;;;;33.03;14.93;;;;;;;0.02;100.00;100689.53;5036184;28;20041;-74
2023/12/01 05:52:45;;;;;;;38.75;15.27;;;;;;;0.06;100.00;100685.25;5036298;28;20033;-74
2023/12/01 05:55:15;;;;;;;31.50;14.88;;;;;;;-0.03;100.00;100691.25;5017927;28;20043;-74
2023/12/01 05:57:42;;;;;;;33.67;14.68;;;;;;;-0.02;100.00;100692.94;5035625;28;20065;-74
2023/12/01 06:00:17;;;;;;;35.67;13.60;;;;;;;0.02;100.00;100692.09;5018118;28;20348;-74
2023/12/01 06:02:47;;;;;;;35.28;15.32;;;;;;;-0.02;100.00;100703.25;5035712;28;20305;-74
2023/12/01 06:05:15;;;;;;;36.20;14.85;;;;;;;-0.01;100.00;100699.81;5035828;28;20336;-74
2023/12/01 06:07:42;;;;;;;34.50;15.27;;;;;;;-0.03;100.00;100694.66;5035645;28;20035;-74
2023/12/01 06:10:09;;;;;;;37.67;15.68;;;;;;;-0.03;100.00;100692.09;5035641;28;20108;-74
2023/12/01 06:12:37;;;;;;;40.50;16.40;;;;;;;-0.07;100.00;100700.69;5035565;28;20063;-74
2023/12/01 06:15:05;;;;;;;36.47;15.45;;;;;;;-0.11;100.00;100696.41;5018714;28;20041;-74
2023/12/01 06:17:31;;;;;;;41.33;16.15;;;;;;;-0.15;100.00;100702.38;5035399;28;20033;-74
2023/12/01 06:19:56;;;;;;;35.03;14.68;;;;;;;-0.15;100.00;100694.66;5034814;28;20109;-74
2023/12/01 06:22:22;;;;;;;37.63;16.10;;;;;;;-0.16;100.00;100707.50;5035688;28;20049;-74
2023/12/01 06:24:47;;;;;;;37.13;15.27;;;;;;;-0.12;100.00;100704.13;5035110;28;20079;-74
2023/12/01 06:27:13;;;;;;;44.20;16.45;;;;;;;-0.14;100.00;100711.81;5035264;28;20336;-74
2023/12/01 06:29:38;;;;;;;38.83;16.33;;;;;;;-0.11;100.00;100713.53;5035143;28;20439;-74
2023/12/01 06:32:04;;;;;;;42.38;17.02;;;;;;;-0.07;100.00;100713.56;5035298;28;20353;-74
2023/12/01 06:34:29;;;;;;;35.75;16.27;;;;;;;-0.03;100.00;100719.56;5035113;28;20385;-74
2023/12/01 06:36:58;;;;;;;35.75;16.17;;;;;;;-0.02;100.00;100716.13;5035287;28;20072;-74
2023/12/01 06:39:25;;;;;;;36.60;16.02;;;;;;;0.13;100.00;100711.00;5035226;28;20037;-74
2023/12/01 06:41:52;;;;;;;39.97;16.95;;;;;;;0.12;100.00;100713.56;5034086;28;20237;-74
2023/12/01 06:44:18;;;;;;;37.78;16.08;;;;;;;0.07;100.00;100717.84;5035395;28;20044;-74
2023/12/01 06:46:43;;;;;;;44.25;16.88;;;;;;;0.02;100.00;100715.28;5034755;28;20078;-74
2023/12/01 06:49:09;;;;;;;39.67;16.15;;;;;;;0.04;100.00;100712.69;5035523;28;20037;-74
2023/12/01 06:51:34;;;;;;;32.38;15.80;;;;;;;0.11;100.00;100709.25;5034898;28;20044;-74
2023/12/01 06:53:59;;;;;;;35.85;15.23;;;;;;;0.18;100.00;100719.59;5034042;28;20033;-74
2023/12/01 06:56:25;;;;;;;34.85;16.02;;;;;;;0.15;100.00;100724.72;5034681;28;20283;-74
2023/12/01 06:58:50;;;;;;;50.65;17.48;;;;;;;0.24;100.00;100728.13;5034365;28;20115;-74
2023/12/01 07:01:18;;;;;;;37.72;15.80;;;;;;;0.27;100.00;100728.16;5033920;28;20029;-74
2023/12/01 07:03:46;;;;;;;38.38;16.63;;;;;;;0.34;100.00;100729.88;5034045;28;20067;-74
2023/12/01 07:06:12;;;;;;;38.58;17.83;;;;;;;0.31;100.00;100730.75;5034600;28;20043;-74
2023/12/01 07:08:41;;;;;;;37.72;16.33;;;;;;;0.37;100.00;100732.44;5034354;28;20103;-74
2023/12/01 07:11:07;;;;;;;38.85;16.33;;;;;;;0.41;100.00;100731.59;5016555;28;20063;-74
2023/12/01 07:13:33;;;;;;;39.90;16.90;;;;;;;0.45;100.00;100738.44;5034263;28;20026;-74
2023/12/01 07:15:58;;;;;;;35.35;15.57;;;;;;;0.44;100.00;100744.47;5034329;28;20041;-74
2023/12/01 07:18:24;;;;;;;37.75;16.05;;;;;;;0.37;100.00;100746.19;5034192;28;20037;-74
2023/12/01 07:20:50;;;;;;;35.08;16.20;;;;;;;0.37;100.00;100750.50;5033198;28;20637;-74
2023/12/01 07:23:17;;;;;;;38.80;16.48;;;;;;;0.30;100.00;100752.19;5033578;28;20029;-74
2023/12/01 07:25:47;;;;;;;39.95;15.95;;;;;;;0.32;100.00;100755.63;5033345;28;20040;-74
2023/12/01 07:28:13;;;;;;;35.22;15.90;;;;;;;0.41;100.00;100749.63;5034552;28;20316;-74
2023/12/01 07:30:40;;;;;;;36.83;15.80;;;;;;;0.45;100.00;100753.91;5033861;28;20069;-74
2023/12/01 07:33:05;;;;;;;33.83;14.57;;;;;;;0.40;100.00;100747.91;5033288;28;20055;-74
2023/12/01 07:35:31;;;;;;;39.35;15.80;;;;;;;0.36;100.00;100752.22;5033292;28;20398;-74
2023/12/01 07:37:56;;;;;;;35.47;15.55;;;;;;;0.38;100.00;100754.75;5014199;28;20263;-74
2023/12/01 07:40:23;;;;;;;35.20;15.13;;;;;;;0.38;100.00;100757.34;5032450;28;20236;-74
2023/12/01 07:42:50;;;;;;;38.08;16.02;;;;;;;0.48;100.00;100761.63;5029719;28;20095;-74
2023/12/01 07:45:19;;;;;;;40.47;15.73;;;;;;;0.52;100.00;100762.50;5033276;28;20037;-74
2023/12/01 07:47:48;;;;;;;;;;;;;;;0.49;100.00;100758.22;5033232;28;20275;-74
2023/12/01 07:50:18;;;;;;;34.72;14.68;;;;;;;0.49;100.00;100765.94;5032926;28;19948;-74
2023/12/01 07:52:47;;;;;;;35.92;14.63;;;;;;;0.47;100.00;100767.63;5033356;28;20030;-74
2023/12/01 07:55:13;;;;;;;35.22;14.30;;;;;;;0.44;100.00;100765.09;5033957;28;20091;-74
2023/12/01 07:57:39;;;;;;;38.15;15.50;;;;;;;0.34;100.00;100768.50;5033273;28;20244;-74
2023/12/01 08:00:14;;;;;;;37.05;14.60;;;;;;;0.40;100.00;100765.06;5034059;28;20041;-74
2023/12/01 08:02:46;;;;;;;32.58;15.48;;;;;;;0.43;100.00;100771.09;5033298;28;20286;-74
2023/12/01 08:05:14;;;;;;;42.20;15.65;;;;;;;0.37;100.00;100768.53;5031460;28;20202;-74
2023/12/01 08:07:41;;;;;;;37.33;16.70;;;;;;;0.48;100.00;100771.09;5033019;28;20356;-74
2023/12/01 08:10:07;;;;;;;35.45;14.90;;;;;;;0.47;100.00;100774.53;5036026;28;20337;-74
2023/12/01 08:12:33;;;;;;;36.17;15.30;;;;;;;0.52;100.00;100772.81;5029214;28;20033;-74
2023/12/01 08:14:58;;;;;;;37.85;15.90;;;;;;;0.60;100.00;100768.53;5032320;28;20075;-74
2023/12/01 08:17:24;;;;;;;38.22;16.10;;;;;;;0.57;100.00;100771.94;5033195;28;20033;-74
2023/12/01 08:19:50;;;;;;;35.88;16.02;;;;;;;0.55;100.00;100773.66;5034232;28;20048;-74
2023/12/01 08:22:15;;;;;;;39.72;15.70;;;;;;;0.49;100.00;100773.69;5037226;28;20025;-74
2023/12/01 08:24:41;;;;;;;37.90;16.08;;;;;;;0.56;100.00;100779.66;5033422;28;20079;-74
2023/12/01 08:27:07;;;;;;;37.40;15.73;;;;;;;0.64;100.00;100782.22;5031766;28;20057;-74
2023/12/01 08:29:32;;;;;;;38.78;16.08;;;;;;;0.69;100.00;100771.09;5032252;28;20033;-74
2023/12/01 08:31:58;;;;;;;40.38;15.70;;;;;;;0.68;100.00;100782.25;5034224;28;20339;-74
2023/12/01 08:34:23;;;;;;;41.72;15.63;;;;;;;0.70;100.00;100782.25;5032379;28;20100;-74
2023/12/01 08:36:48;;;;;;;36.20;14.88;;;;;;;0.66;100.00;100780.53;5032127;28;20026;-74
2023/12/01 08:39:14;;;;;;;40.95;14.95;;;;;;;0.57;100.00;100787.41;5031348;28;20095;-74
2023/12/01 08:41:40;;;;;;;37.60;16.02;;;;;;;0.59;100.00;100789.13;5029563;28;20060;-74
2023/12/01 08:44:05;;;;;;;32.85;14.77;;;;;;;0.60;100.00;100791.72;5022024;28;20144;-74
2023/12/01 08:46:30;;;;;;;39.13;15.48;;;;;;;0.62;100.00;100789.13;5032456;28;20037;-74
2023/12/01 08:48:56;;;;;;;36.63;15.82;;;;;;;0.74;100.00;100782.22;5032985;28;20344;-74
2023/12/01 08:51:21;;;;;;;41.72;16.77;;;;;;;0.74;100.00;100787.38;5033626;28;20337;-74
2023/12/01 08:53:47;;;;;;;41.67;15.05;;;;;;;0.71;100.00;100787.41;5033057;28;20055;-74
2023/12/01 08:56:12;;;;;;;40.67;15.57;;;;;;;0.69;100.00;100793.41;5032983;28;20044;-74
2023/12/01 08:58:38;;;;;;;36.08;16.13;;;;;;;0.78;100.00;100788.25;5032742;28;20060;-74
2023/12/01 09:01:03;;;;;;;40.08;16.15;;;;;;;0.80;100.00;100794.28;5032534;28;20041;-74
2023/12/01 09:03:29;;;;;;;38.60;15.25;;;;;;;0.83;100.00;100795.97;5032333;28;20041;-74
2023/12/01 09:05:54;;;;;;;38.10;16.05;;;;;;;0.84;100.00;100792.56;5036077;28;20045;-74
2023/12/01 09:08:19;;;;;;;31.80;14.43;;;;;;;0.86;100.00;100796.00;5037125;28;20097;-74
2023/12/01 09:10:45;;;;;;;40.33;16.02;;;;;;;0.95;100.00;100803.69;5025531;28;20108;-74
2023/12/01 09:13:10;;;;;;;33.00;14.35;;;;;;;0.91;100.00;100809.69;5024977;28;20034;-74
2023/12/01 09:15:35;;;;;;;37.28;15.43;;;;;;;0.86;100.00;100806.31;5030547;28;20325;-74
2023/12/01 09:18:01;;;;;;;33.38;14.40;;;;;;;0.88;100.00;100805.44;5030119;28;20087;-74
2023/12/01 09:20:26;;;;;;;27.35;13.27;;;;;;;0.91;100.00;100810.59;5032332;28;20380;-74
2023/12/01 09:22:52;;;;;;;32.20;14.15;;;;;;;0.95;100.00;100812.28;5033572;28;20049;-74
2023/12/01 09:25:18;;;;;;;31.88;14.00;;;;;;;1.03;100.00;100819.16;5032607;28;20296;-74
2023/12/01 09:27:43;;;;;;;34.03;14.00;;;;;;;0.99;100.00;100818.31;5032366;28;20102;-74
2023/12/01 09:30:13;;;;;;;33.35;13.70;;;;;;;0.94;100.00;100820.03;5030776;28;20037;-74
2023/12/01 09:32:39;;;;;;;30.73;13.52;;;;;;;0.92;100.00;100827.75;5031278;28;20328;-74
2023/12/01 09:35:05;;;;;;;28.30;12.20;;;;;;;0.96;100.00;100823.47;5031483;28;20025;-74
2023/12/01 09:37:31;;;;;;;38.38;14.15;;;;;;;0.95;100.00;100822.59;5012453;28;20232;-74
2023/12/01 09:39:56;;;;;;;35.50;13.68;;;;;;;1.00;100.00;100821.72;5030598;28;20395;-74
2023/12/01 09:42:23;;;;;;;29.63;12.43;;;;;;;0.96;100.00;100836.34;5030534;28;20130;-74
2023/12/01 09:44:50;;;;;;;28.45;12.30;;;;;;;0.92;100.00;100830.34;5030369;28;20029;-74
2023/12/01 09:47:17;;;;;;;29.92;11.68;;;;;;;0.94;99.66;100841.50;5028603;28;20340;-74
2023/12/01 09:49:46;;;;;;;33.00;12.48;;;;;;;0.95;99.31;100844.97;5030432;28;20510;-74
2023/12/01 09:52:11;;;;;;;33.40;13.23;;;;;;;0.98;99.47;100844.09;5031456;28;20040;-74
2023/12/01 09:54:38;;;;;;;27.23;11.50;;;;;;;0.98;99.95;100849.25;5029113;28;20033;-74
2023/12/01 09:57:06;;;;;;;31.63;12.60;;;;;;;0.96;99.78;100851.81;5030485;28;20026;-74
2023/12/01 09:59:35;;;;;;;27.30;12.10;;;;;;;0.85;99.40;100848.41;5029898;28;20043;-74
2023/12/01 10:02:02;;;;;;;27.85;12.25;;;;;;;0.88;99.93;100848.41;5028468;28;20025;-74
2023/12/01 10:04:28;;;;;;;28.98;11.77;;;;;;;0.98;100.00;100844.09;5028817;28;20171;-74
2023/12/01 10:06:54;;;;;;;28.80;11.57;;;;;;;1.04;100.00;100839.78;5029807;28;20486;-74
2023/12/01 10:09:26;;;;;;;31.70;12.07;;;;;;;1.12;100.00;100839.78;5029440;28;20391;-71
2023/12/01 10:12:12;;;;;;;25.50;10.80;;;;;;;1.16;100.00;100844.06;5029250;28;20356;-71
2023/12/01 10:14:38;;;;;;;22.08;11.10;;;;;;;1.08;99.80;100848.38;5026453;28;20048;-71
2023/12/01 10:17:05;;;;;;;29.02;12.32;;;;;;;1.06;99.10;100843.22;5031348;28;20049;-71
2023/12/01 10:19:42;;;;;;;28.42;12.02;;;;;;;1.06;98.76;100843.22;5031037;28;20409;-71
2023/12/01 10:22:09;;;;;;;26.58;12.07;;;;;;;1.09;98.78;100840.66;5029380;28;20103;-71
2023/12/01 10:24:34;;;;;;;28.52;12.35;;;;;;;1.05;98.42;100853.53;5030596;28;20368;-71
2023/12/01 10:27:04;;;;;;;31.50;13.38;;;;;;;1.09;98.73;100845.81;5030534;28;20303;-71
2023/12/01 10:29:32;;;;;;;31.50;12.35;;;;;;;1.21;99.16;100844.06;5030580;28;20037;-71
2023/12/01 10:32:03;;;;;;;30.38;12.57;;;;;;;1.22;99.87;100838.03;5030335;28;20135;-71
2023/12/01 10:34:29;;;;;;;31.48;12.30;;;;;;;1.18;99.63;100836.31;5030316;28;20273;-71
2023/12/01 10:36:56;;;;;;;32.58;12.43;;;;;;;1.20;99.20;100848.38;5029146;28;20037;-71
2023/12/01 10:39:29;;;;;;;31.65;13.13;;;;;;;1.22;98.80;100843.19;5029207;28;20040;-71
2023/12/01 10:41:57;;;;;;;34.53;13.30;;;;;;;1.21;97.91;100839.75;5030610;28;20218;-74
2023/12/01 10:44:24;;;;;;;32.67;12.75;;;;;;;1.22;97.83;100836.31;5030108;28;20029;-74
2023/12/01 10:46:51;;;;;;;29.30;12.63;;;;;;;1.25;98.31;100841.44;5029027;28;20044;-74
2023/12/01 10:49:17;;;;;;;26.33;12.00;;;;;;;1.15;96.76;100842.34;5028311;28;20194;-74
2023/12/01 10:51:46;;;;;;;25.52;12.35;;;;;;;1.14;96.71;100849.22;5030510;28;20084;-74
2023/12/01 10:54:14;;;;;;;30.83;11.60;;;;;;;1.19;97.53;100849.22;5026871;28;20040;-74
2023/12/01 10:57:10;;;;;;;29.23;12.55;;;;;;;1.15;97.56;100844.94;5030439;28;20217;-74
2023/12/01 10:59:38;;;;;;;34.45;13.55;;;;;;;1.13;97.29;100844.94;5032684;28;20136;-74
2023/12/01 11:02:05;;;;;;;31.27;12.85;;;;;;;1.09;97.30;100844.94;5031826;28;20052;-74
2023/12/01 11:04:33;;;;;;;27.88;12.80;;;;;;;0.99;97.33;100849.25;5033013;28;20120;-74
2023/12/01 11:07:35;;;;;;;26.80;12.00;;;;;;;0.89;97.69;100843.25;5029893;28;20033;-74